Time;durP1;ratioP1;P1;durP2;ratioP2;P2;SDS_P1;SDS_P2;PMS_P1;PMS_P2;Temp;Humidity;BMP_temperature;BMP_pressure;BME280_temperature;BME280_humidity;BME280_pressure;Samples;Min_cycle;Max_cycle;Signal;HPM_P1;HPM_P2
2022/07/27 00:02:27;;;;;;;10.38;5.28;;;17.70;99.90;;;18.65;100.00;98602.63;5061825;27;119960;-74
2022/07/27 00:04:57;;;;;;;8.20;5.45;;;17.70;99.90;;;18.62;100.00;98600.63;5062258;27;119937;-76
2022/07/27 00:07:25;;;;;;;9.00;5.85;;;17.60;99.90;;;18.57;100.00;98606.53;5046496;27;128744;-73
2022/07/27 00:09:54;;;;;;;9.95;5.82;;;17.60;99.90;;;18.53;100.00;98606.50;5061362;27;129442;-74
2022/07/27 00:12:22;;;;;;;9.55;6.03;;;17.50;99.90;;;18.53;100.00;98600.22;5060330;27;122516;-73
2022/07/27 00:14:51;;;;;;;12.02;5.50;;;17.40;99.90;;;18.48;100.00;98606.88;5063443;27;120475;-73
2022/07/27 00:17:22;;;;;;;10.07;5.85;;;17.40;99.90;;;18.44;100.00;98608.84;5061240;27;129534;-73
2022/07/27 00:19:51;;;;;;;9.95;5.75;;;17.30;99.90;;;18.23;100.00;98607.56;5061091;27;130107;-73
2022/07/27 00:22:21;;;;;;;10.95;6.80;;;17.20;99.90;;;18.16;100.00;98604.00;5061407;27;120389;-74
2022/07/27 00:24:50;;;;;;;11.98;6.20;;;17.20;99.90;;;18.08;100.00;98597.66;5063774;27;118771;-74
2022/07/27 00:27:19;;;;;;;13.85;6.80;;;17.10;99.90;;;18.04;100.00;98600.38;5060861;27;129854;-74
2022/07/27 00:29:47;;;;;;;9.30;6.82;;;17.10;99.90;;;18.03;100.00;98607.06;5059853;27;129408;-73
2022/07/27 00:32:15;;;;;;;10.43;6.20;;;17.00;99.90;;;18.04;100.00;98605.88;5060063;27;120096;-75
2022/07/27 00:34:44;;;;;;;11.85;6.53;;;17.00;99.90;;;18.04;100.00;98602.34;5061170;27;119486;-75
2022/07/27 00:37:12;;;;;;;12.88;5.97;;;17.00;99.90;;;17.98;100.00;98603.88;5061620;27;130553;-75
2022/07/27 00:39:43;;;;;;;9.77;6.50;;;17.10;99.90;;;17.95;100.00;98594.44;5060731;27;129872;-74
2022/07/27 00:42:11;;;;;;;11.90;6.68;;;17.00;99.90;;;17.97;100.00;98597.59;5061305;27;120276;-74
2022/07/27 00:44:40;;;;;;;10.63;6.47;;;17.00;99.90;;;17.93;100.00;98600.31;5061099;27;119980;-74
2022/07/27 00:47:08;;;;;;;9.98;5.78;;;17.00;99.90;;;17.87;100.00;98596.34;5045634;27;129240;-74
2022/07/27 00:49:37;;;;;;;10.68;6.50;;;17.00;99.90;;;17.83;100.00;98602.97;5062500;27;128978;-74
2022/07/27 00:52:07;;;;;;;13.63;7.15;;;17.00;99.90;;;17.83;100.00;98598.28;5060783;27;119651;-75
2022/07/27 00:54:36;;;;;;;10.57;6.55;;;16.90;99.90;;;17.79;100.00;98594.72;5064084;27;119501;-74
2022/07/27 00:57:06;;;;;;;9.52;5.95;;;16.90;99.90;;;17.79;100.00;98602.94;5059279;27;129911;-73
2022/07/27 00:59:35;;;;;;;10.80;7.53;;;17.00;99.90;;;17.77;100.00;98599.81;5060263;27;129772;-75
2022/07/27 01:02:04;;;;;;;11.98;6.65;;;17.00;99.90;;;17.76;100.00;98596.28;5059440;27;121713;-73
2022/07/27 01:04:33;;;;;;;8.65;6.60;;;17.00;99.90;;;17.77;100.00;98588.81;5061052;27;121950;-73
2022/07/27 01:07:03;;;;;;;9.68;6.13;;;17.00;99.90;;;17.79;100.00;98598.25;5060623;27;129768;-73
2022/07/27 01:12:21;;;;;;;10.07;6.75;;;16.90;99.90;;;17.82;100.00;98588.47;5060588;27;119830;-75
2022/07/27 01:14:51;;;;;;;11.77;6.55;;;17.00;99.90;;;17.77;100.00;98594.31;5060789;27;120104;-75
2022/07/27 01:17:20;;;;;;;8.75;6.40;;;16.90;99.90;;;17.73;100.00;98590.75;5060222;27;129907;-74
2022/07/27 01:19:49;;;;;;;9.80;6.05;;;16.90;99.90;;;17.74;100.00;98586.84;5060618;27;129812;-74
2022/07/27 01:22:19;;;;;;;9.48;6.45;;;16.90;99.90;;;17.73;100.00;98593.50;5060754;27;120215;-73
2022/07/27 01:24:48;;;;;;;9.95;6.75;;;16.80;99.90;;;17.71;100.00;98590.34;5060569;27;119697;-75
2022/07/27 01:27:17;;;;;;;9.60;6.15;;;16.80;99.90;;;17.64;100.00;98582.88;5043871;27;128937;-74
2022/07/27 01:29:45;;;;;;;11.02;6.80;;;16.70;99.90;;;17.60;100.00;98588.31;5062382;27;129192;-75
2022/07/27 01:32:14;;;;;;;11.38;6.85;;;16.70;99.90;;;17.55;100.00;98579.66;5060085;27;119647;-75
2022/07/27 01:34:43;;;;;;;14.27;6.97;;;16.70;99.90;;;17.49;100.00;98573.72;5062313;27;119402;-75
2022/07/27 01:37:11;;;;;;;15.07;7.03;;;16.60;99.90;;;17.50;100.00;98580.00;5060146;27;130426;-75
2022/07/27 01:39:41;;;;;;;14.00;7.15;;;16.60;99.90;;;17.51;100.00;98582.34;5044978;27;128243;-75
2022/07/27 01:42:10;;;;;;;11.10;6.95;;;16.60;99.90;;;17.52;100.00;98578.47;5060244;27;120214;-75
2022/07/27 01:44:38;;;;;;;10.48;7.10;;;16.60;99.90;;;17.52;100.00;98578.47;5063685;27;119909;-75
2022/07/27 01:47:07;;;;;;;10.57;6.78;;;16.60;99.90;;;17.51;100.00;98582.34;5065356;27;129062;-75
2022/07/27 01:49:35;;;;;;;11.65;6.53;;;16.60;99.90;;;17.50;100.00;98574.50;5063598;27;129536;-75
2022/07/27 01:52:04;;;;;;;15.13;7.22;;;16.60;99.90;;;17.50;100.00;98580.00;5062455;27;121987;-75
2022/07/27 01:54:33;;;;;;;14.82;7.55;;;16.60;99.90;;;17.49;100.00;98578.44;5066181;27;121739;-75
2022/07/27 01:57:03;;;;;;;12.45;7.78;;;16.60;99.90;;;17.48;100.00;98577.63;5048360;27;129008;-75
2022/07/27 01:59:32;;;;;;;12.20;8.00;;;16.70;99.90;;;17.50;100.00;98575.31;5063333;27;130703;-75
2022/07/27 02:02:00;;;;;;;10.30;7.05;;;16.70;99.90;;;17.51;100.00;98571.38;5063605;27;119306;-75
2022/07/27 02:04:29;;;;;;;14.40;7.43;;;16.70;99.90;;;17.51;100.00;98571.38;5065953;27;118604;-75
2022/07/27 02:06:58;;;;;;;11.10;7.00;;;16.60;99.90;;;17.53;100.00;98571.81;5063205;27;129873;-72
2022/07/27 02:09:27;;;;;;;12.93;7.72;;;16.60;99.90;;;17.59;100.00;98575.78;5063560;27;129957;-73
2022/07/27 02:14:41;;;;;;;10.13;6.75;;;16.70;99.90;;;17.64;100.00;98568.34;5051434;27;119625;-73
2022/07/27 02:17:10;;;;;;;14.23;7.88;;;16.70;99.90;;;17.65;100.00;98559.72;5061580;27;130530;-75
2022/07/27 02:19:38;;;;;;;11.63;7.32;;;16.70;99.90;;;17.65;100.00;98558.94;5063096;27;129710;-73
2022/07/27 02:22:07;;;;;;;12.27;7.40;;;16.70;99.90;;;17.64;100.00;98560.91;5063230;27;119954;-74
2022/07/27 02:24:36;;;;;;;13.95;7.32;;;16.70;99.90;;;17.69;100.00;98559.78;5063337;27;119632;-73
2022/07/27 02:27:06;;;;;;;13.40;7.72;;;16.80;99.90;;;17.74;100.00;98556.66;5062961;27;130068;-74
2022/07/27 02:29:34;;;;;;;14.15;7.30;;;16.80;99.90;;;17.77;100.00;98555.91;5062756;27;129532;-74
2022/07/27 02:32:05;;;;;;;13.20;7.90;;;16.80;99.90;;;17.81;100.00;98559.47;5063015;27;119624;-73
2022/07/27 02:34:33;;;;;;;14.38;7.70;;;16.90;99.90;;;17.83;100.00;98554.38;5065445;27;119045;-74
2022/07/27 02:37:02;;;;;;;15.75;7.63;;;17.00;99.90;;;17.85;100.00;98563.00;5064667;27;128865;-73
2022/07/27 02:39:31;;;;;;;12.50;7.05;;;17.00;99.90;;;17.90;100.00;98565.44;5062759;27;130270;-73
2022/07/27 02:41:59;;;;;;;13.63;7.43;;;17.00;99.90;;;17.96;100.00;98563.88;5061735;27;122279;-73
2022/07/27 02:44:28;;;;;;;13.57;7.88;;;17.10;99.90;;;18.02;100.00;98560.78;5064961;27;121498;-74
2022/07/27 02:46:56;;;;;;;11.23;7.38;;;17.20;99.90;;;18.04;100.00;98564.69;5061537;27;130732;-73
2022/07/27 02:49:26;;;;;;;12.27;7.30;;;17.20;99.90;;;18.09;100.00;98561.59;5064522;27;129311;-73
2022/07/27 02:51:55;;;;;;;11.88;7.72;;;17.30;99.90;;;18.12;100.00;98560.03;5065010;27;119046;-73
2022/07/27 02:54:25;;;;;;;13.30;7.68;;;17.30;99.90;;;18.18;100.00;98561.22;5064917;27;119252;-73
2022/07/27 02:56:56;;;;;;;13.73;7.18;;;17.40;99.90;;;18.22;100.00;98562.03;5063798;27;129047;-74
2022/07/27 02:59:25;;;;;;;13.82;6.65;;;17.40;99.90;;;18.26;100.00;98567.53;5064750;27;128118;-74
2022/07/27 03:01:54;;;;;;;15.98;7.40;;;17.40;99.90;;;18.29;100.00;98564.84;5062518;27;120172;-73
2022/07/27 03:04:22;;;;;;;11.75;7.60;;;17.40;99.90;;;18.37;100.00;98565.66;5062543;27;119863;-73
2022/07/27 03:06:52;;;;;;;14.43;7.72;;;17.50;99.90;;;18.44;100.00;98559.38;5060011;27;129917;-74
2022/07/27 03:09:20;;;;;;;12.20;7.43;;;17.50;99.90;;;18.50;100.00;98552.34;5061028;27;129545;-73
2022/07/27 03:11:49;;;;;;;12.02;7.85;;;17.60;99.90;;;18.58;100.00;98556.69;5047423;27;119026;-72
2022/07/27 03:14:18;;;;;;;13.65;8.80;;;17.60;99.90;;;18.61;100.00;98558.66;5061448;27;119842;-73
2022/07/27 03:16:46;;;;;;;10.45;7.30;;;17.70;99.90;;;18.64;100.00;98563.38;5063959;27;128732;-72
2022/07/27 03:19:15;;;;;;;11.95;7.18;;;17.70;99.90;;;18.71;100.00;98561.81;5064167;27;130490;-73
2022/07/27 03:21:43;;;;;;;10.23;7.60;;;17.80;99.90;;;18.79;100.00;98568.91;5062408;27;119878;-74
2022/07/27 03:24:13;;;;;;;13.85;8.68;;;17.80;99.90;;;18.85;100.00;98561.88;5062728;27;120002;-74
2022/07/27 03:26:42;;;;;;;14.65;7.20;;;17.90;99.90;;;18.84;100.00;98560.28;5060814;27;130411;-73
2022/07/27 03:29:12;;;;;;;14.63;8.00;;;17.90;99.90;;;18.92;100.00;98575.63;5064261;27;129300;-72
2022/07/27 03:31:40;;;;;;;14.00;8.68;;;18.00;99.90;;;19.02;100.00;98566.59;5060999;27;121690;-72
2022/07/27 03:34:08;;;;;;;11.90;7.95;;;18.10;99.90;;;19.13;100.00;98576.84;5064199;27;121774;-73
2022/07/27 03:36:37;;;;;;;13.70;8.13;;;18.10;99.90;;;19.15;100.00;98566.22;5058598;27;130418;-73
2022/07/27 03:39:06;;;;;;;13.45;8.18;;;18.20;99.90;;;19.18;100.00;98568.19;5063870;27;128575;-73
2022/07/27 03:41:36;;;;;;;15.02;8.20;;;18.20;99.90;;;19.23;100.00;98567.81;5064164;27;118863;-75
2022/07/27 03:44:05;;;;;;;13.45;7.20;;;18.20;99.90;;;19.25;100.00;98570.19;5062002;27;119500;-75
2022/07/27 03:46:33;;;;;;;15.40;7.57;;;18.30;99.90;;;19.11;100.00;98563.47;5058743;27;130511;-75
2022/07/27 03:49:02;;;;;;;17.17;7.78;;;18.20;99.90;;;18.88;100.00;98574.84;5043999;27;129064;-75
2022/07/27 03:51:30;;;;;;;14.15;8.25;;;18.00;99.90;;;18.66;100.00;98566.50;5041567;27;119962;-75
2022/07/27 03:53:59;;;;;;;11.30;8.45;;;17.90;99.90;;;18.58;100.00;98578.66;5043278;27;120671;-75
2022/07/27 03:56:28;;;;;;;14.95;8.93;;;17.90;99.90;;;18.65;100.00;98570.44;5039939;27;130457;-76
2022/07/27 03:58:59;;;;;;;17.13;9.20;;;17.90;99.90;;;18.76;100.00;98569.66;5041243;27;129601;-74
2022/07/27 04:01:27;;;;;;;12.60;8.38;;;18.00;99.90;;;18.96;100.00;98562.66;5041398;27;119960;-73
2022/07/27 04:03:56;;;;;;;16.60;8.93;;;18.10;99.90;;;19.19;100.00;98564.28;5041349;27;119442;-73
2022/07/27 04:06:24;;;;;;;15.60;8.80;;;18.20;99.90;;;19.37;100.00;98565.06;5041006;27;130352;-74
2022/07/27 04:08:53;;;;;;;12.77;9.02;;;18.30;99.90;;;19.53;100.00;98561.13;5041075;27;129379;-74
2022/07/27 04:11:21;;;;;;;14.35;8.82;;;18.30;99.90;;;19.50;100.00;98562.69;5041479;27;119660;-76
2022/07/27 04:13:50;;;;;;;11.57;8.50;;;18.30;99.90;;;19.45;100.00;98556.81;5041765;27;119441;-75
2022/07/27 04:16:20;;;;;;;15.30;8.82;;;18.30;99.90;;;19.57;100.00;98556.38;5042706;27;128879;-74
2022/07/27 04:18:49;;;;;;;11.65;7.43;;;18.50;99.90;;;19.72;100.00;98557.16;5040848;27;129432;-73
2022/07/27 04:21:17;;;;;;;12.93;8.10;;;18.60;99.90;;;19.81;99.95;98554.81;5039775;27;122828;-75
2022/07/27 04:23:46;;;;;;;12.48;8.90;;;18.70;99.90;;;19.90;99.36;98559.94;5041030;27;122256;-74
2022/07/27 04:26:15;;;;;;;11.43;7.47;;;18.70;99.90;;;20.03;98.99;98555.53;5040802;27;129654;-74
2022/07/27 04:28:43;;;;;;;14.88;8.25;;;18.80;99.90;;;20.17;98.58;98553.94;5040970;27;130074;-75
2022/07/27 04:31:12;;;;;;;14.18;8.85;;;18.90;99.90;;;20.31;97.31;98559.38;5026600;27;118641;-74
2022/07/27 04:33:42;;;;;;;12.75;8.82;;;19.00;99.90;;;20.35;95.64;98554.66;5042885;27;119123;-74
2022/07/27 04:36:11;;;;;;;14.07;8.60;;;19.00;99.90;;;20.39;94.56;98555.41;5040625;27;130616;-74
2022/07/27 04:38:39;;;;;;;13.48;7.65;;;19.00;99.90;;;20.53;95.03;98575.81;5042719;27;129047;-73
2022/07/27 04:41:08;;;;;;;13.07;8.48;;;19.20;99.90;;;20.68;93.11;98565.53;5040826;27;119567;-75
2022/07/27 04:43:37;;;;;;;13.35;7.50;;;19.20;99.90;;;20.57;93.32;98560.03;5041000;27;119943;-75
2022/07/27 04:46:06;;;;;;;14.15;8.90;;;19.20;99.90;;;20.54;93.95;98566.38;5041309;27;129629;-75
2022/07/27 04:48:35;;;;;;;15.63;8.55;;;19.10;99.90;;;20.36;96.34;98561.72;5056200;27;129424;-74
2022/07/27 04:51:05;;;;;;;14.18;8.60;;;19.00;99.90;;;20.36;95.62;98556.22;5056847;27;119583;-74
2022/07/27 04:53:35;;;;;;;14.23;8.70;;;19.00;99.90;;;20.43;95.02;98571.94;5041900;27;119959;-75
2022/07/27 04:56:04;;;;;;;10.82;8.40;;;19.10;99.90;;;20.57;94.17;98571.06;5040172;27;129912;-73
2022/07/27 04:58:33;;;;;;;15.35;9.23;;;19.10;99.90;;;20.70;92.88;98569.47;5040179;27;130202;-75
2022/07/27 05:01:01;;;;;;;16.10;9.00;;;19.20;99.90;;;20.51;93.95;98561.69;5040416;27;120424;-76
2022/07/27 05:03:30;;;;;;;11.77;9.45;;;19.10;99.90;;;20.46;94.21;98560.91;5027304;27;118292;-77
2022/07/27 05:05:59;;;;;;;16.65;9.57;;;19.10;99.90;;;20.45;96.01;98564.81;5042389;27;129607;-75
2022/07/27 05:08:29;;;;;;;13.07;9.48;;;19.20;99.90;;;20.83;93.59;98572.53;5040108;27;129959;-73
2022/07/27 05:10:57;;;;;;;13.07;8.70;;;19.40;99.90;;;21.06;91.64;98557.44;5039120;27;122035;-76
2022/07/27 05:13:26;;;;;;;18.63;10.07;;;19.50;99.90;;;21.23;91.34;98550.97;5040612;27;121611;-75
2022/07/27 05:15:54;;;;;;;15.27;8.90;;;19.70;99.90;;;21.57;88.75;98544.81;5041975;27;129003;-76
2022/07/27 05:18:24;;;;;;;13.48;8.43;;;20.00;99.90;;;21.87;86.32;98552.38;5039264;27;130188;-74
2022/07/27 05:20:53;;;;;;;13.38;8.48;;;20.20;99.90;;;21.97;85.91;98553.47;5040327;27;119712;-73
2022/07/27 05:23:21;;;;;;;12.73;9.27;;;20.30;99.90;;;21.85;84.54;98554.78;5040890;27;119996;-75
2022/07/27 05:25:51;;;;;;;15.75;9.40;;;20.40;99.90;;;22.07;83.87;98551.78;5041857;27;130133;-73
2022/07/27 05:28:19;;;;;;;13.20;8.77;;;20.40;99.90;;;22.24;82.47;98550.78;5040111;27;129996;-73
2022/07/27 05:30:48;;;;;;;12.18;8.23;;;20.50;99.90;;;22.22;82.47;98544.09;5040145;27;119544;-72
2022/07/27 05:33:17;;;;;;;12.88;8.70;;;20.50;99.90;;;22.42;81.41;98549.81;5040203;27;119567;-75
2022/07/27 05:35:45;;;;;;;13.43;8.18;;;20.70;99.90;;;22.68;81.41;98553.03;5038322;27;130005;-74
2022/07/27 05:38:14;;;;;;;9.90;7.57;;;20.80;99.90;;;23.15;80.22;98562.25;5039760;27;129793;-74
2022/07/27 05:40:44;;;;;;;16.88;8.60;;;21.10;99.90;;;23.44;77.28;98558.22;5045309;27;119965;-75
2022/07/27 05:43:14;;;;;;;15.93;8.27;;;21.00;99.90;;;23.64;75.44;98570.13;5041813;27;119183;-73
2022/07/27 05:45:43;;;;;;;13.32;7.78;;;21.10;99.90;;;23.79;74.06;98558.78;5039574;27;130456;-76
2022/07/27 05:48:11;;;;;;;11.07;7.85;;;21.30;99.90;;;23.44;75.43;98561.00;5039459;27;129105;-75
2022/07/27 05:50:40;;;;;;;13.30;7.68;;;21.20;99.90;;;23.63;74.82;98565.78;5039970;27;119535;-73
2022/07/27 05:53:08;;;;;;;12.23;7.85;;;21.50;99.90;;;23.59;74.53;98562.31;5025290;27;118405;-74
2022/07/27 05:55:37;;;;;;;13.52;8.23;;;21.40;99.90;;;23.58;74.31;98571.03;5044811;27;129833;-74
2022/07/27 05:58:06;;;;;;;13.23;8.70;;;21.50;99.90;;;23.84;73.56;98555.56;5047887;27;129546;-75
2022/07/27 06:00:36;;;;;;;11.75;8.65;;;21.70;99.90;;;24.10;71.76;98561.41;5043828;27;122026;-75
2022/07/27 06:03:05;;;;;;;14.07;8.45;;;21.90;99.90;;;24.11;71.47;98563.75;5049124;27;121024;-74
2022/07/27 06:05:34;;;;;;;13.98;8.45;;;21.90;99.90;;;24.13;71.67;98555.78;5051598;27;128583;-76
2022/07/27 06:08:02;;;;;;;10.88;7.32;;;21.90;99.90;;;24.32;71.55;98564.53;5047154;27;129732;-76
2022/07/27 06:10:33;;;;;;;13.60;8.25;;;22.10;99.90;;;24.68;71.37;98556.28;5049348;27;119681;-74
2022/07/27 06:13:03;;;;;;;9.93;7.40;;;22.40;99.90;;;24.84;71.14;98563.03;5050295;27;119193;-74
2022/07/27 06:15:32;;;;;;;10.05;5.93;;;22.60;99.90;;;25.08;68.04;98561.69;5047648;27;130534;-75
2022/07/27 06:18:02;;;;;;;13.45;6.18;;;22.80;99.90;;;25.11;64.80;98558.03;5049346;27;128689;-75
2022/07/27 06:20:32;;;;;;;10.27;6.13;;;22.80;99.90;;;25.28;65.00;98567.19;5048898;27;119524;-74
2022/07/27 06:23:02;;;;;;;10.48;5.70;;;22.90;99.90;;;25.35;62.38;98560.66;5051308;27;118655;-75
2022/07/27 06:25:33;;;;;;;9.55;5.47;;;22.90;99.90;;;25.40;61.78;98562.94;5047120;27;129944;-69
2022/07/27 06:28:03;;;;;;;7.30;4.47;;;23.00;95.30;;;24.94;62.86;98556.47;5047101;27;129802;-75
2022/07/27 06:30:31;;;;;;;9.23;5.50;;;22.80;95.20;;;24.91;63.45;98541.47;5054319;27;119859;-73
2022/07/27 06:33:03;;;;;;;10.05;5.13;;;22.70;96.80;;;25.01;63.14;98550.78;5060678;27;118983;-74
2022/07/27 06:35:32;;;;;;;9.15;5.55;;;22.90;95.20;;;24.99;62.83;98557.97;5062071;27;130083;-74
2022/07/27 06:38:01;;;;;;;12.95;5.07;;;23.00;91.60;;;25.37;62.94;98561.03;5055557;27;128578;-75
2022/07/27 06:40:31;;;;;;;9.25;4.47;;;23.30;93.30;;;25.54;59.86;98552.66;5063200;27;119606;-73
2022/07/27 06:42:59;;;;;;;10.85;4.35;;;23.30;73.50;;;25.70;59.90;98558.22;5061704;27;119257;-74
2022/07/27 06:45:28;;;;;;;9.02;4.55;;;23.50;73.20;;;25.83;59.87;98570.16;5063677;27;129695;-75
2022/07/27 06:47:57;;;;;;;12.55;5.43;;;23.50;74.40;;;25.78;59.48;98559.56;5061665;27;129428;-75
2022/07/27 06:50:27;;;;;;;10.52;5.38;;;23.50;72.70;;;25.81;60.96;98561.47;5059789;27;122558;-75
2022/07/27 06:52:56;;;;;;;11.10;6.35;;;23.40;90.80;;;25.76;62.95;98575.16;5059732;27;121807;-74
2022/07/27 06:55:24;;;;;;;12.13;6.47;;;23.20;95.40;;;25.66;61.48;98560.28;5060227;27;130369;-74
2022/07/27 06:57:53;;;;;;;12.30;6.25;;;23.20;92.40;;;25.68;60.34;98573.75;5060624;27;129654;-75
2022/07/27 07:00:22;;;;;;;11.15;6.47;;;23.20;87.30;;;25.65;60.51;98569.88;5062538;27;119374;-74
2022/07/27 07:02:55;;;;;;;12.90;5.45;;;23.10;89.20;;;25.47;60.19;98582.19;5061409;27;119740;-74
2022/07/27 07:05:26;;;;;;;12.27;5.00;;;22.80;81.50;;;25.25;61.30;98581.13;5062635;27;130843;-74
2022/07/27 07:07:54;;;;;;;9.32;5.00;;;22.70;90.70;;;24.94;62.15;98592.56;5062841;27;129946;-75
2022/07/27 07:10:24;;;;;;;8.68;4.97;;;22.50;93.50;;;24.73;64.38;98600.16;5062561;27;120005;-74
2022/07/27 07:12:55;;;;;;;9.45;5.50;;;22.40;99.90;;;24.65;66.08;98589.63;5062483;27;119947;-74
2022/07/27 07:15:26;;;;;;;10.50;4.97;;;22.40;99.90;;;24.55;66.14;98594.16;5061186;27;129904;-74
2022/07/27 07:17:54;;;;;;;9.10;4.78;;;22.30;99.90;;;24.44;67.44;98596.38;5062331;27;130241;-74
2022/07/27 07:20:23;;;;;;;7.70;4.75;;;22.20;99.90;;;24.26;70.08;98603.03;5062927;27;119057;-73
2022/07/27 07:22:53;;;;;;;11.18;4.80;;;22.00;99.90;;;24.05;69.78;98610.56;5062439;27;120105;-74
2022/07/27 07:25:22;;;;;;;11.65;5.32;;;21.80;99.90;;;23.81;71.95;98611.78;5062116;27;129846;-72
2022/07/27 07:27:51;;;;;;;13.25;4.65;;;21.60;99.90;;;23.55;72.66;98616.97;5064195;27;129200;-73
2022/07/27 07:30:20;;;;;;;7.78;4.15;;;21.40;99.90;;;23.25;74.08;98626.94;5062367;27;120194;-72
2022/07/27 07:32:49;;;;;;;9.95;4.68;;;21.10;99.90;;;23.01;76.24;98628.81;5063069;27;120074;-71
2022/07/27 07:35:18;;;;;;;9.30;4.63;;;21.00;99.90;;;22.80;76.26;98635.44;5061873;27;130445;-72
2022/07/27 07:37:46;;;;;;;10.05;5.53;;;20.90;99.90;;;22.68;78.61;98634.00;5062027;27;129844;-71
2022/07/27 07:40:17;;;;;;;10.55;5.35;;;20.80;99.90;;;22.55;79.93;98636.53;5061000;27;121904;-72
2022/07/27 07:42:51;;;;;;;8.77;5.38;;;20.60;99.90;;;22.39;81.27;98633.56;5061589;27;122009;-70
2022/07/27 07:45:21;;;;;;;10.13;5.95;;;20.40;99.90;;;22.24;82.96;98647.50;5061812;27;129842;-73
2022/07/27 07:47:51;;;;;;;9.75;5.80;;;20.30;99.90;;;22.13;83.86;98643.28;5063724;27;128917;-69
2022/07/27 07:50:19;;;;;;;9.40;5.93;;;20.20;99.90;;;22.16;84.94;98637.72;5061971;27;119423;-74
2022/07/27 07:52:49;;;;;;;9.23;5.43;;;20.20;99.90;;;22.15;86.35;98641.69;5062295;27;119733;-70
2022/07/27 07:55:22;;;;;;;11.00;5.90;;;20.30;99.90;;;22.10;87.43;98644.91;5061369;27;130095;-70
2022/07/27 07:57:51;;;;;;;9.23;6.55;;;20.20;99.90;;;22.05;89.31;98642.59;5061841;27;129432;-70
2022/07/27 08:00:21;;;;;;;15.68;9.85;;;20.10;99.90;;;21.88;94.11;98650.63;5059577;27;120543;-72
2022/07/27 08:02:53;;;;;;;18.73;9.80;;;20.00;99.90;;;21.79;96.20;98647.53;5062840;27;119510;-70
2022/07/27 08:05:22;;;;;;;16.13;10.60;;;20.00;99.90;;;21.69;98.41;98648.41;5062593;27;129604;-71
2022/07/27 08:07:51;;;;;;;14.30;11.18;;;19.90;99.90;;;21.54;100.00;98654.06;5063516;27;129319;-75
2022/07/27 08:10:22;;;;;;;15.93;11.00;;;19.90;99.90;;;21.50;100.00;98669.88;5061560;27;119279;-74
2022/07/27 08:12:55;;;;;;;14.35;10.35;;;19.90;99.90;;;21.29;100.00;98664.47;5060238;27;120216;-74
2022/07/27 08:15:24;;;;;;;18.45;11.23;;;19.70;99.90;;;21.13;100.00;98662.19;5063511;27;129163;-73
2022/07/27 08:17:53;;;;;;;15.73;10.35;;;19.70;99.90;;;21.36;100.00;98659.69;5061137;27;129194;-75
2022/07/27 08:20:23;;;;;;;13.48;9.82;;;19.90;99.90;;;21.37;100.00;98660.47;5061429;27;120084;-75
2022/07/27 08:22:51;;;;;;;13.48;9.25;;;19.80;99.90;;;21.62;100.00;98659.53;5061780;27;119458;-75
2022/07/27 08:25:21;;;;;;;16.63;9.07;;;19.80;99.90;;;21.97;99.95;98663.97;5058977;27;130927;-75
2022/07/27 08:27:49;;;;;;;12.23;8.32;;;19.90;99.90;;;22.13;98.64;98655.13;5060817;27;129625;-74
2022/07/27 08:30:18;;;;;;;12.68;9.20;;;20.10;99.90;;;21.99;100.00;98655.28;5059884;27;122469;-74
2022/07/27 08:32:53;;;;;;;14.27;9.23;;;20.10;99.90;;;21.53;99.57;98666.31;5061707;27;122561;-73
2022/07/27 08:35:22;;;;;;;12.85;9.70;;;19.90;99.90;;;21.66;100.00;98663.03;5061179;27;129731;-75
2022/07/27 08:37:51;;;;;;;11.50;8.30;;;20.00;99.90;;;21.51;100.00;98665.13;5060710;27;129349;-74
2022/07/27 08:40:22;;;;;;;11.48;8.88;;;19.90;99.90;;;21.21;100.00;98663.72;5061048;27;119386;-75
2022/07/27 08:42:51;;;;;;;12.10;8.65;;;19.80;99.90;;;21.33;100.00;98666.03;5059952;27;119477;-75
2022/07/27 08:45:23;;;;;;;12.02;8.90;;;19.80;99.90;;;21.25;100.00;98663.69;5060840;27;130735;-73
2022/07/27 08:47:52;;;;;;;10.63;9.05;;;19.80;99.90;;;21.10;100.00;98666.53;5061343;27;129509;-75
2022/07/27 08:50:26;;;;;;;14.43;9.55;;;19.70;99.90;;;21.06;100.00;98668.53;5061163;27;119455;-72
2022/07/27 08:52:58;;;;;;;12.98;9.45;;;19.70;99.90;;;21.12;100.00;98658.66;5059373;27;119396;-72
2022/07/27 08:55:29;;;;;;;12.60;9.73;;;19.70;99.90;;;21.21;100.00;98657.41;5059380;27;130618;-74
2022/07/27 08:57:58;;;;;;;13.05;9.95;;;19.70;99.90;;;21.27;100.00;98664.06;5060713;27;130133;-74
2022/07/27 09:00:28;;;;;;;10.68;8.85;;;19.70;99.90;;;21.17;100.00;98669.25;5060193;27;120171;-74
2022/07/27 09:02:58;;;;;;;13.93;9.52;;;19.60;99.90;;;21.09;100.00;98684.28;5060406;27;120033;-74
2022/07/27 09:05:27;;;;;;;15.98;9.35;;;19.60;99.90;;;20.93;100.00;98675.72;5060909;27;130976;-72
2022/07/27 09:08:08;;;;;;;12.40;9.65;;;19.50;99.90;;;20.89;100.00;98680.44;5060182;27;129980;-75
2022/07/27 09:10:38;;;;;;;13.20;9.68;;;19.50;99.90;;;20.71;100.00;98680.50;5060101;27;120096;-73
2022/07/27 09:13:25;;;;;;;14.27;9.48;;;19.40;99.90;;;20.64;100.00;98681.28;5061036;27;119572;-72
2022/07/27 09:15:57;;;;;;;17.15;10.30;;;19.30;99.90;;;20.76;100.00;98680.88;5060989;27;130756;-74
2022/07/27 09:18:29;;;;;;;12.13;9.30;;;19.40;99.90;;;20.76;100.00;98678.13;5045454;27;128943;-74
2022/07/27 09:21:16;;;;;;;13.98;9.75;;;19.40;99.90;;;20.73;100.00;98673.41;5061390;27;121119;-74
2022/07/27 09:23:47;;;;;;;16.63;9.63;;;19.40;99.90;;;20.77;100.00;98679.72;5060712;27;121830;-75
2022/07/27 09:26:20;;;;;;;12.73;9.90;;;19.40;99.90;;;20.97;100.00;98687.50;5060216;27;129760;-74
2022/07/27 09:28:55;;;;;;;13.13;10.05;;;19.60;99.90;;;21.03;100.00;98679.59;5045625;27;128640;-74
2022/07/27 09:31:24;;;;;;;16.10;10.23;;;19.60;99.90;;;20.97;100.00;98682.78;5059277;27;120196;-72
2022/07/27 09:33:56;;;;;;;12.25;10.02;;;19.60;99.90;;;20.95;100.00;98685.13;5062657;27;119215;-72
2022/07/27 09:36:28;;;;;;;21.30;10.80;;;19.60;99.90;;;20.89;100.00;98691.47;5060521;27;130258;-74
2022/07/27 09:39:01;;;;;;;13.75;10.50;;;19.50;99.90;;;20.80;100.00;98684.44;5060398;27;129458;-72
2022/07/27 09:41:42;;;;;;;14.30;10.48;;;19.50;99.90;;;;;;5060419;27;120104;-77
2022/07/27 09:44:11;;;;;;;22.15;10.65;;;19.70;99.90;;;21.34;100.00;98691.63;5059499;27;120160;-74
2022/07/27 09:46:41;;;;;;;12.73;9.55;;;20.00;99.90;;;21.44;100.00;98704.59;5058953;27;129950;-75
2022/07/27 09:49:29;;;;;;;15.13;9.40;;;20.10;99.90;;;21.48;100.00;98705.31;5059955;27;130758;-76
2022/07/27 09:52:00;;;;;;;15.90;9.65;;;20.10;99.90;;;21.65;100.00;98708.41;5059301;27;119611;-72
2022/07/27 09:54:41;;;;;;;12.80;9.30;;;20.10;99.90;;;21.92;100.00;98703.06;5062970;27;120312;-72
2022/07/27 09:57:11;;;;;;;12.73;9.23;;;20.30;99.90;;;22.21;100.00;98700.06;5059723;27;130147;-73
2022/07/27 09:59:40;;;;;;;13.85;8.45;;;20.50;99.90;;;22.33;98.34;98698.75;5059757;27;128907;-75
2022/07/27 10:02:11;;;;;;;11.82;8.50;;;20.50;99.90;;;22.54;98.61;98701.31;5060084;27;119609;-71
2022/07/27 10:04:40;;;;;;;12.20;9.13;;;20.70;99.90;;;22.56;96.64;98707.22;5063501;27;118692;-72
2022/07/27 10:07:08;;;;;;;14.15;8.93;;;20.60;99.90;;;22.73;97.13;98701.88;5065196;27;130083;-71
2022/07/27 10:09:38;;;;;;;11.38;9.10;;;20.90;99.90;;;22.67;95.77;98709.06;5063205;27;129517;-71
2022/07/27 10:12:08;;;;;;;13.68;9.48;;;20.80;99.90;;;22.29;97.31;98706.28;5063374;27;122056;-74
2022/07/27 10:14:38;;;;;;;13.68;9.45;;;20.50;99.90;;;22.24;98.39;98710.28;5064914;27;122491;-74
2022/07/27 10:17:09;;;;;;;14.30;9.52;;;20.50;99.90;;;22.06;100.00;98715.97;5063228;27;130649;-73
2022/07/27 10:19:45;;;;;;;15.40;9.95;;;20.50;99.90;;;21.99;100.00;98708.53;5063054;27;129448;-73